地図

経路データ

SID SEASON NUMBER BASIN SUBBASIN NAME ISO_TIME NATURE LAT LON WMO_WIND WMO_PRES WMO_AGENCY TRACK_TYPE DIST2LAND LANDFALL IFLAG USA_AGENCY USA_ATCF_ID USA_LAT USA_LON USA_RECORD USA_STATUS USA_WIND USA_PRES USA_SSHS USA_R34_NE USA_R34_SE USA_R34_SW USA_R34_NW USA_R50_NE USA_R50_SE USA_R50_SW USA_R50_NW USA_R64_NE USA_R64_SE USA_R64_SW USA_R64_NW USA_POCI USA_ROCI USA_RMW USA_EYE TOKYO_LAT TOKYO_LON TOKYO_GRADE TOKYO_WIND TOKYO_PRES TOKYO_R50_DIR TOKYO_R50_LONG TOKYO_R50_SHORT TOKYO_R30_DIR TOKYO_R30_LONG TOKYO_R30_SHORT TOKYO_LAND CMA_LAT CMA_LON CMA_CAT CMA_WIND CMA_PRES HKO_LAT HKO_LON HKO_CAT HKO_WIND HKO_PRES NEWDELHI_LAT NEWDELHI_LON NEWDELHI_GRADE NEWDELHI_WIND NEWDELHI_PRES NEWDELHI_CI NEWDELHI_DP NEWDELHI_POCI REUNION_LAT REUNION_LON REUNION_TYPE REUNION_WIND REUNION_PRES REUNION_TNUM REUNION_CI REUNION_RMW REUNION_R34_NE REUNION_R34_SE REUNION_R34_SW REUNION_R34_NW REUNION_R50_NE REUNION_R50_SE REUNION_R50_SW REUNION_R50_NW REUNION_R64_NE REUNION_R64_SE REUNION_R64_SW REUNION_R64_NW BOM_LAT BOM_LON BOM_TYPE BOM_WIND BOM_PRES BOM_TNUM BOM_CI BOM_RMW BOM_R34_NE BOM_R34_SE BOM_R34_SW BOM_R34_NW BOM_R50_NE BOM_R50_SE BOM_R50_SW BOM_R50_NW BOM_R64_NE BOM_R64_SE BOM_R64_SW BOM_R64_NW BOM_ROCI BOM_POCI BOM_EYE BOM_POS_METHOD BOM_PRES_METHOD NADI_LAT NADI_LON NADI_CAT NADI_WIND NADI_PRES WELLINGTON_LAT WELLINGTON_LON WELLINGTON_WIND WELLINGTON_PRES DS824_LAT DS824_LON DS824_STAGE DS824_WIND DS824_PRES TD9636_LAT TD9636_LON TD9636_STAGE TD9636_WIND TD9636_PRES TD9635_LAT TD9635_LON TD9635_WIND TD9635_PRES TD9635_ROCI NEUMANN_LAT NEUMANN_LON NEUMANN_CLASS NEUMANN_WIND NEUMANN_PRES MLC_LAT MLC_LON MLC_CLASS MLC_WIND MLC_PRES USA_GUST BOM_GUST BOM_GUST_PER REUNION_GUST REUNION_GUST_PER USA_SEAHGT USA_SEARAD_NE USA_SEARAD_SE USA_SEARAD_SW USA_SEARAD_NW STORM_SPEED STORM_DIR
1971249N11302 1971 109 NA NA EDITH 1971-09-05 18:00:00 TS 11.4000 -58.0000 25 1010 hurdat_atl main 336 276 O_____________ hurdat_atl AL131971 11.4000 -58.0000 TD 25 1010 -1 13 279
1971249N11302 1971 109 NA NA EDITH 1971-09-05 21:00:00 TS 11.5002 -58.6699 main 266 201 P_____________ AL131971 11.5002 -58.6699 TD 27 -1 14 278
1971249N11302 1971 109 NA NA EDITH 1971-09-06 00:00:00 TS 11.6000 -59.4000 30 hurdat_atl main 201 142 O_____________ hurdat_atl AL131971 11.6000 -59.4000 TD 30 -1 15 277
1971249N11302 1971 109 NA CS EDITH 1971-09-06 03:00:00 TS 11.6999 -60.2276 main 142 116 P_____________ AL131971 11.6999 -60.2276 TD 30 -1 17 277
1971249N11302 1971 109 NA CS EDITH 1971-09-06 06:00:00 TS 11.8000 -61.1000 30 hurdat_atl main 123 123 O_____________ hurdat_atl AL131971 11.8000 -61.1000 TD 30 -1 17 277
1971249N11302 1971 109 NA CS EDITH 1971-09-06 09:00:00 TS 11.8998 -61.9575 main 136 134 P_____________ AL131971 11.8998 -61.9575 TD 30 -1 17 277
1971249N11302 1971 109 NA CS EDITH 1971-09-06 12:00:00 TS 12.0000 -62.8000 30 hurdat_atl main 145 145 O_____________ hurdat_atl AL131971 12.0000 -62.8000 TD 30 -1 16 277
1971249N11302 1971 109 NA CS EDITH 1971-09-06 15:00:00 TS 12.1072 -63.6075 main 166 166 P_____________ AL131971 12.1072 -63.6075 TD 27 -1 16 277
1971249N11302 1971 109 NA CS EDITH 1971-09-06 18:00:00 TS 12.2000 -64.4000 25 hurdat_atl main 180 180 O_____________ hurdat_atl AL131971 12.2000 -64.4000 TD 25 -1 16 275
1971249N11302 1971 109 NA CS EDITH 1971-09-06 21:00:00 TS 12.2497 -65.1927 main 199 190 P_____________ AL131971 12.2497 -65.1927 TD 25 -1 16 274
1971249N11302 1971 109 NA CS EDITH 1971-09-07 00:00:00 TS 12.3000 -66.0000 25 hurdat_atl main 190 190 O_____________ hurdat_atl AL131971 12.3000 -66.0000 TD 25 -1 16 275
1971249N11302 1971 109 NA CS EDITH 1971-09-07 03:00:00 TS 12.3925 -66.8649 main 201 164 P_____________ AL131971 12.3925 -66.8649 TD 25 -1 17 277
1971249N11302 1971 109 NA CS EDITH 1971-09-07 06:00:00 TS 12.5000 -67.7000 25 hurdat_atl main 164 141 O_____________ hurdat_atl AL131971 12.5000 -67.7000 TD 25 -1 15 278
1971249N11302 1971 109 NA CS EDITH 1971-09-07 09:00:00 TS 12.5994 -68.3926 main 141 109 P_____________ AL131971 12.5994 -68.3926 TD 30 -1 14 278
1971249N11302 1971 109 NA CS EDITH 1971-09-07 12:00:00 TS 12.7000 -69.1000 35 1006 hurdat_atl main 109 78 O_____________ hurdat_atl AL131971 12.7000 -69.1000 TS 35 1006 0 16 278
1971249N11302 1971 109 NA CS EDITH 1971-09-07 15:00:00 TS 12.8078 -69.9999 main 78 78 P_____________ AL131971 12.8078 -69.9999 TS 40 1000 0 18 276
1971249N11302 1971 109 NA CS EDITH 1971-09-07 18:00:00 TS 12.9000 -70.9000 45 995 hurdat_atl main 80 55 O_____________ hurdat_atl AL131971 12.9000 -70.9000 TS 45 995 0 16 275
1971249N11302 1971 109 NA CS EDITH 1971-09-07 21:00:00 TS 12.9495 -71.6227 main 55 55 P_____________ AL131971 12.9495 -71.6227 TS 52 994 0 14 274
1971249N11302 1971 109 NA CS EDITH 1971-09-08 00:00:00 TS 13.0000 -72.3000 60 hurdat_atl main 84 84 I_____________ hurdat_atl AL131971 13.0000 -72.3000 TS 60 994 0 14 275
1971249N11302 1971 109 NA CS EDITH 1971-09-08 03:00:00 TS 13.0773 -73.0426 main 133 133 P_____________ AL131971 13.0773 -73.0426 TS 62 993 0 15 278
1971249N11302 1971 109 NA CS EDITH 1971-09-08 06:00:00 TS 13.2000 -73.8000 65 993 hurdat_atl main 200 200 O_____________ hurdat_atl AL131971 13.2000 -73.8000 HU 65 993 1 15 283
1971249N11302 1971 109 NA CS EDITH 1971-09-08 09:00:00 TS 13.3995 -74.5199 main 248 248 P_____________ AL131971 13.3995 -74.5199 HU 65 990 1 15 285
1971249N11302 1971 109 NA CS EDITH 1971-09-08 12:00:00 TS 13.6000 -75.3000 65 hurdat_atl main 294 294 I_____________ hurdat_atl AL131971 13.6000 -75.3000 HU 65 987 1 17 281
1971249N11302 1971 109 NA CS EDITH 1971-09-08 15:00:00 TS 13.7152 -76.2427 main 333 333 P_____________ AL131971 13.7152 -76.2427 HU 70 984 1 19 276
1971249N11302 1971 109 NA CS EDITH 1971-09-08 18:00:00 TS 13.8000 -77.2000 75 982 hurdat_atl main 394 394 O_____________ hurdat_atl AL131971 13.8000 -77.2000 HU 75 982 1 17 276
1971249N11302 1971 109 NA CS EDITH 1971-09-08 21:00:00 TS 13.8994 -78.0151 main 433 433 P_____________ AL131971 13.8994 -78.0151 HU 82 1 16 277
1971249N11302 1971 109 NA CS EDITH 1971-09-09 00:00:00 TS 14.0000 -78.8000 90 hurdat_atl main 448 388 O_____________ hurdat_atl AL131971 14.0000 -78.8000 HU 90 2 16 277
1971249N11302 1971 109 NA CS EDITH 1971-09-09 03:00:00 TS 14.1000 -79.6650 main 378 291 P_____________ AL131971 14.1000 -79.6650 HU 97 3 17 277
1971249N11302 1971 109 NA CS EDITH 1971-09-09 06:00:00 TS 14.2000 -80.5000 105 hurdat_atl main 291 215 O_____________ hurdat_atl AL131971 14.2000 -80.5000 HU 105 3 15 277
1971249N11302 1971 109 NA CS EDITH 1971-09-09 09:00:00 TS 14.2846 -81.2302 main 215 140 P_____________ AL131971 14.2846 -81.2302 HU 112 3 14 278
1971249N11302 1971 109 NA CS EDITH 1971-09-09 12:00:00 TS 14.4000 -81.9000 120 960 hurdat_atl main 140 69 O_____________ hurdat_atl AL131971 14.4000 -81.9000 HU 120 960 4 14 283
1971249N11302 1971 109 NA CS EDITH 1971-09-09 15:00:00 TS 14.5850 -82.5874 main 69 10 P_____________ AL131971 14.5850 -82.5874 HU 130 951 4 13 288
1971249N11302 1971 109 NA CS EDITH 1971-09-09 18:00:00 TS 14.8000 -83.2000 140 943 hurdat_atl main 10 0 O_____________ hurdat_atl AL131971 14.8000 -83.2000 HU 140 943 5 11 292
1971249N11302 1971 109 NA NA EDITH 1971-09-09 21:00:00 TS 15.0072 -83.6876 main 0 0 P_____________ AL131971 15.0072 -83.6876 HU 120 4 10 295
1971249N11302 1971 109 NA NA EDITH 1971-09-10 00:00:00 TS 15.2000 -84.1000 100 hurdat_atl main 0 0 O_____________ hurdat_atl AL131971 15.2000 -84.1000 HU 100 3 9 294
1971249N11302 1971 109 NA NA EDITH 1971-09-10 03:00:00 TS 15.3498 -84.5002 main 0 0 P_____________ AL131971 15.3498 -84.5002 HU 90 2 8 291
1971249N11302 1971 109 NA NA EDITH 1971-09-10 06:00:00 TS 15.5000 -84.9000 80 hurdat_atl main 0 0 O_____________ hurdat_atl AL131971 15.5000 -84.9000 HU 80 1 9 292
1971249N11302 1971 109 NA NA EDITH 1971-09-10 09:00:00 TS 15.6774 -85.3277 main 0 0 P_____________ AL131971 15.6774 -85.3277 HU 75 1 10 295
1971249N11302 1971 109 NA NA EDITH 1971-09-10 12:00:00 TS 15.9000 -85.8000 70 hurdat_atl main 0 0 O_____________ hurdat_atl AL131971 15.9000 -85.8000 HU 70 1 11 297
1971249N11302 1971 109 NA CS EDITH 1971-09-10 15:00:00 TS 16.1701 -86.3500 main 44 44 P_____________ AL131971 16.1701 -86.3500 HU 67 1 12 300
1971249N11302 1971 109 NA CS EDITH 1971-09-10 18:00:00 TS 16.5000 -86.9000 65 hurdat_atl main 78 78 O_____________ hurdat_atl AL131971 16.5000 -86.9000 HU 65 1 12 306
1971249N11302 1971 109 NA CS EDITH 1971-09-10 21:00:00 TS 16.8849 -87.3875 main 85 47 P_____________ AL131971 16.8849 -87.3875 HU 62 0 12 313
1971249N11302 1971 109 NA CS EDITH 1971-09-11 00:00:00 TS 17.3000 -87.8000 60 hurdat_atl main 47 21 O_____________ hurdat_atl AL131971 17.3000 -87.8000 TS 60 0 11 321
1971249N11302 1971 109 NA CS EDITH 1971-09-11 03:00:00 TS 17.7223 -88.1077 main 21 0 P_____________ AL131971 17.7223 -88.1077 TS 60 0 10 324
1971249N11302 1971 109 NA NA EDITH 1971-09-11 06:00:00 TS 18.1000 -88.4000 60 hurdat_atl main 0 0 O_____________ hurdat_atl AL131971 18.1000 -88.4000 TS 60 0 9 314
1971249N11302 1971 109 NA NA EDITH 1971-09-11 09:00:00 TS 18.3575 -88.7927 main 0 0 P_____________ AL131971 18.3575 -88.7927 TS 52 0 9 303
1971249N11302 1971 109 NA NA EDITH 1971-09-11 12:00:00 TS 18.6000 -89.2000 45 hurdat_atl main 0 0 O_____________ hurdat_atl AL131971 18.6000 -89.2000 TS 45 0 9 309
1971249N11302 1971 109 NA NA EDITH 1971-09-11 15:00:00 TS 18.9499 -89.5650 main 0 0 P_____________ AL131971 18.9499 -89.5650 TS 40 0 10 317
1971249N11302 1971 109 NA NA EDITH 1971-09-11 18:00:00 TS 19.3000 -89.9000 35 hurdat_atl main 0 0 O_____________ hurdat_atl AL131971 19.3000 -89.9000 TS 35 0 8 315
1971249N11302 1971 109 NA NA EDITH 1971-09-11 21:00:00 TS 19.5348 -90.1856 main 0 0 P_____________ AL131971 19.5348 -90.1856 TS 35 0 8 311
1971249N11302 1971 109 NA NA EDITH 1971-09-12 00:00:00 TS 19.8000 -90.5000 35 1000 hurdat_atl main 0 0 O_____________ hurdat_atl AL131971 19.8000 -90.5000 TS 35 1000 0 10 315
1971249N11302 1971 109 NA GM EDITH 1971-09-12 03:00:00 TS 20.2276 -90.9348 main 41 41 P_____________ AL131971 20.2276 -90.9348 TS 35 1000 0 12 317
1971249N11302 1971 109 NA GM EDITH 1971-09-12 06:00:00 TS 20.7000 -91.4000 35 1001 hurdat_atl main 96 96 O_____________ hurdat_atl AL131971 20.7000 -91.4000 TS 35 1001 0 12 318
1971249N11302 1971 109 NA GM EDITH 1971-09-12 09:00:00 TS 21.1374 -91.8150 main 149 149 P_____________ AL131971 21.1374 -91.8150 TS 35 1000 0 11 317
1971249N11302 1971 109 NA GM EDITH 1971-09-12 12:00:00 TS 21.5000 -92.2000 35 1000 hurdat_atl main 201 201 O_____________ hurdat_atl AL131971 21.5000 -92.2000 TS 35 1000 0 9 310
1971249N11302 1971 109 NA GM EDITH 1971-09-12 15:00:00 TS 21.7450 -92.5802 main 247 247 P_____________ AL131971 21.7450 -92.5802 TS 35 1000 0 8 302
1971249N11302 1971 109 NA GM EDITH 1971-09-12 18:00:00 TS 21.9000 -92.9000 35 1000 hurdat_atl main 283 283 O_____________ hurdat_atl AL131971 21.9000 -92.9000 TS 35 1000 0 5 300
1971249N11302 1971 109 NA GM EDITH 1971-09-12 21:00:00 TS 22.0147 -93.0853 main 306 306 P_____________ AL131971 22.0147 -93.0853 TS 35 999 0 4 298
1971249N11302 1971 109 NA GM EDITH 1971-09-13 00:00:00 TS 22.1000 -93.3000 35 hurdat_atl main 329 329 I_____________ hurdat_atl AL131971 22.1000 -93.3000 TS 35 999 0 6 285
1971249N11302 1971 109 NA GM EDITH 1971-09-13 03:00:00 TS 22.1701 -93.7128 main 372 329 P_____________ AL131971 22.1701 -93.7128 TS 40 998 0 9 283
1971249N11302 1971 109 NA GM EDITH 1971-09-13 06:00:00 TS 22.3000 -94.2000 45 998 hurdat_atl main 329 295 O_____________ hurdat_atl AL131971 22.3000 -94.2000 TS 45 998 0 10 297
1971249N11302 1971 109 NA GM EDITH 1971-09-13 09:00:00 TS 22.5998 -94.6421 main 299 268 P_____________ AL131971 22.5998 -94.6421 TS 42 0 10 306
1971249N11302 1971 109 NA GM EDITH 1971-09-13 12:00:00 TS 22.9000 -95.1000 40 hurdat_atl main 268 225 O_____________ hurdat_atl AL131971 22.9000 -95.1000 TS 40 0 10 296
1971249N11302 1971 109 NA GM EDITH 1971-09-13 15:00:00 TS 23.0300 -95.6078 main 225 173 P_____________ AL131971 23.0300 -95.6078 TS 40 0 9 282
1971249N11302 1971 109 NA GM EDITH 1971-09-13 18:00:00 TS 23.1000 -96.1000 40 hurdat_atl main 173 132 O_____________ hurdat_atl AL131971 23.1000 -96.1000 TS 40 0 9 282
1971249N11302 1971 109 NA GM EDITH 1971-09-13 21:00:00 TS 23.2073 -96.5225 main 132 91 P_____________ AL131971 23.2073 -96.5225 TS 42 0 8 285
1971249N11302 1971 109 NA GM EDITH 1971-09-14 00:00:00 TS 23.3000 -96.9000 45 hurdat_atl main 91 51 O_____________ hurdat_atl AL131971 23.3000 -96.9000 TS 45 0 7 281
1971249N11302 1971 109 NA GM EDITH 1971-09-14 03:00:00 TS 23.3426 -97.2951 main 51 20 P_____________ AL131971 23.3426 -97.2951 TS 45 0 7 279
1971249N11302 1971 109 NA GM EDITH 1971-09-14 06:00:00 TS 23.4000 -97.6000 45 hurdat_atl main 20 10 O_____________ hurdat_atl AL131971 23.4000 -97.6000 TS 45 0 5 295
1971249N11302 1971 109 NA GM EDITH 1971-09-14 09:00:00 TS 23.5424 -97.7525 main 0 0 P_____________ AL131971 23.5424 -97.7525 TS 45 0 4 329
1971249N11302 1971 109 NA NA EDITH 1971-09-14 12:00:00 TS 23.7000 -97.8000 45 hurdat_atl main 0 0 O_____________ hurdat_atl AL131971 23.7000 -97.8000 TS 45 0 3 346
1971249N11302 1971 109 NA NA EDITH 1971-09-14 15:00:00 TS 23.8000 -97.8300 main 0 0 P_____________ AL131971 23.8000 -97.8300 TS 45 0 2 8
1971249N11302 1971 109 NA NA EDITH 1971-09-14 18:00:00 TS 23.9000 -97.8000 45 992 hurdat_atl main 0 0 O_____________ hurdat_atl AL131971 23.9000 -97.8000 TS 45 992 0 2 21
1971249N11302 1971 109 NA GM EDITH 1971-09-14 21:00:00 TS 24.0275 -97.7299 main 10 10 P_____________ AL131971 24.0275 -97.7299 TS 45 990 0 4 31
1971249N11302 1971 109 NA GM EDITH 1971-09-15 00:00:00 TS 24.2000 -97.6000 45 989 hurdat_atl main 20 20 O_____________ hurdat_atl AL131971 24.2000 -97.6000 TS 45 989 0 5 36
1971249N11302 1971 109 NA GM EDITH 1971-09-15 03:00:00 TS 24.4275 -97.4150 main 32 30 P_____________ AL131971 24.4275 -97.4150 TS 45 987 0 6 36
1971249N11302 1971 109 NA GM EDITH 1971-09-15 06:00:00 TS 24.7000 -97.2000 45 hurdat_atl main 45 37 I_____________ hurdat_atl AL131971 24.7000 -97.2000 TS 45 986 0 7 34
1971249N11302 1971 109 NA GM EDITH 1971-09-15 09:00:00 TS 24.9699 -97.0147 main 46 41 P_____________ AL131971 24.9699 -97.0147 TS 47 985 0 7 31
1971249N11302 1971 109 NA GM EDITH 1971-09-15 12:00:00 TS 25.3000 -96.8000 50 984 hurdat_atl main 51 45 O_____________ hurdat_atl AL131971 25.3000 -96.8000 TS 50 984 0 9 31
1971249N11302 1971 109 NA GM EDITH 1971-09-15 15:00:00 TS 25.7124 -96.5297 main 68 63 P_____________ AL131971 25.7124 -96.5297 TS 57 983 0 11 31
1971249N11302 1971 109 NA GM EDITH 1971-09-15 18:00:00 TS 26.2000 -96.2000 65 982 hurdat_atl main 92 92 O_____________ hurdat_atl AL131971 26.2000 -96.2000 HU 65 982 1 12 32
1971249N11302 1971 109 NA GM EDITH 1971-09-15 21:00:00 TS 26.7350 -95.8149 main 151 151 P_____________ AL131971 26.7350 -95.8149 HU 67 980 1 13 33
1971249N11302 1971 109 NA GM EDITH 1971-09-16 00:00:00 TS 27.3000 -95.4000 70 979 hurdat_atl main 155 125 O_____________ hurdat_atl AL131971 27.3000 -95.4000 HU 70 979 1 13 31
1971249N11302 1971 109 NA GM EDITH 1971-09-16 03:00:00 TS 27.8493 -95.0513 main 125 88 P_____________ AL131971 27.8493 -95.0513 HU 75 978 1 13 33
1971249N11302 1971 109 NA GM EDITH 1971-09-16 06:00:00 TS 28.4000 -94.6000 80 977 hurdat_atl main 88 87 O_____________ hurdat_atl AL131971 28.4000 -94.6000 HU 80 977 1 15 42
1971249N11302 1971 109 NA GM EDITH 1971-09-16 09:00:00 TS 28.9578 -93.9027 main 78 29 P_____________ AL131971 28.9578 -93.9027 HU 82 977 1 17 50
1971249N11302 1971 109 NA GM EDITH 1971-09-16 12:00:00 TS 29.5000 -93.1000 85 978 hurdat_atl main 29 0 O_____________ hurdat_atl AL131971 29.5000 -93.1000 HU 85 978 2 17 53
1971249N11302 1971 109 NA NA EDITH 1971-09-16 15:00:00 TS 29.9843 -92.3633 main 0 0 P_____________ AL131971 29.9843 -92.3633 HU 72 1 16 52
1971249N11302 1971 109 NA NA EDITH 1971-09-16 18:00:00 TS 30.5000 -91.6000 60 hurdat_atl main 0 0 O_____________ hurdat_atl AL131971 30.5000 -91.6000 TS 60 0 19 50
1971249N11302 1971 109 NA NA EDITH 1971-09-16 21:00:00 TS 31.1882 -90.7071 main 0 0 P_____________ AL131971 31.1882 -90.7071 TS 50 0 20 48
1971249N11302 1971 109 NA NA EDITH 1971-09-17 00:00:00 TS 31.8000 -89.9000 40 hurdat_atl main 0 0 O_____________ hurdat_atl AL131971 31.8000 -89.9000 TS 40 0 14 50
1971249N11302 1971 109 NA NA EDITH 1971-09-17 03:00:00 TS 32.1012 -89.4101 main 0 0 P_____________ AL131971 32.1012 -89.4101 TS 35 0 9 57
1971249N11302 1971 109 NA NA EDITH 1971-09-17 06:00:00 TS 32.3000 -89.0000 30 hurdat_atl main 0 0 O_____________ hurdat_atl AL131971 32.3000 -89.0000 TD 30 -1 10 59
1971249N11302 1971 109 NA NA EDITH 1971-09-17 09:00:00 TS 32.6079 -88.3930 main 0 0 P_____________ AL131971 32.6079 -88.3930 TD 27 -1 12 59
1971249N11302 1971 109 NA NA EDITH 1971-09-17 12:00:00 TS 32.9000 -87.8000 25 hurdat_atl main 0 0 O_____________ hurdat_atl AL131971 32.9000 -87.8000 TD 25 -1 10 59
1971249N11302 1971 109 NA NA EDITH 1971-09-17 15:00:00 TS 33.1142 -87.3991 main 0 0 P_____________ AL131971 33.1142 -87.3991 TD 25 -1 8 59
1971249N11302 1971 109 NA NA EDITH 1971-09-17 18:00:00 TS 33.3000 -87.0000 25 hurdat_atl main 0 0 O_____________ hurdat_atl AL131971 33.3000 -87.0000 TD 25 -1 9 64
1971249N11302 1971 109 NA NA EDITH 1971-09-17 21:00:00 TS 33.5077 -86.4226 main 0 0 P_____________ AL131971 33.5077 -86.4226 TD 25 -1 11 68
1971249N11302 1971 109 NA NA EDITH 1971-09-18 00:00:00 TS 33.7000 -85.8000 25 hurdat_atl main 0 0 O_____________ hurdat_atl AL131971 33.7000 -85.8000 TD 25 -1 11 70
1971249N11302 1971 109 NA NA EDITH 1971-09-18 03:00:00 TS 33.8602 -85.2301 main 0 0 P_____________ AL131971 33.8602 -85.2301 TD 25 -1 10 72
1971249N11302 1971 109 NA NA EDITH 1971-09-18 06:00:00 TS 34.0000 -84.7000 25 hurdat_atl main 0 O_____________ hurdat_atl AL131971 34.0000 -84.7000 TD 25 -1 9 72

IBTrACS Databaseについて

本データベースは、米国NOAAが公開する1842年以降の世界の熱帯低気圧のベストトラックデータアーカイブInternational Best Track Archive for Climate Stewardship (IBTrACS)を、ウェブで閲覧しやすい形式に変換したものです。

最終更新日:2021-10-21